createdAt,value
2018-11-25T00:00:26.999Z,51.63
2018-11-25T00:03:07.962Z,49.03
2018-11-25T00:05:49.325Z,55.43
2018-11-25T00:08:42.569Z,49.03
2018-11-25T00:11:18.701Z,50.77
2018-11-25T00:13:58.151Z,47.83
2018-11-25T00:16:36.497Z,48.37
2018-11-25T00:19:13.861Z,49.70
2018-11-25T00:21:49.734Z,46.97
2018-11-25T00:24:26.715Z,48.13
2018-11-25T00:27:05.325Z,49.87
2018-11-25T00:29:45.853Z,51.77
2018-11-25T00:32:27.351Z,47.70
2018-11-25T00:35:09.673Z,46.87
2018-11-25T00:37:48.975Z,43.90
2018-11-25T00:40:25.818Z,46.47
2018-11-25T00:43:08.005Z,43.37
2018-11-25T00:45:46.000Z,44.17
2018-11-25T00:48:27.802Z,44.53
2018-11-25T00:51:08.422Z,44.07
2018-11-25T00:53:47.705Z,42.00
2018-11-25T00:56:26.367Z,43.63
2018-11-25T00:59:05.680Z,43.07
2018-11-25T01:01:43.728Z,42.40
2018-11-25T01:04:20.669Z,43.37
2018-11-25T01:07:00.686Z,46.47
2018-11-25T01:09:37.301Z,45.83
2018-11-25T01:12:14.101Z,45.33
2018-11-25T01:14:51.702Z,47.30
2018-11-25T01:17:27.874Z,41.33
2018-11-25T01:20:04.107Z,41.50
2018-11-25T01:22:45.448Z,40.73
2018-11-25T01:25:21.735Z,42.80
2018-11-25T01:27:57.424Z,40.63
2018-11-25T01:30:33.540Z,45.70
2018-11-25T01:33:10.090Z,42.23
2018-11-25T01:35:50.337Z,44.30
2018-11-25T01:38:32.662Z,48.63
2018-11-25T01:41:09.547Z,46.23
2018-11-25T01:43:45.327Z,46.40
2018-11-25T01:46:22.740Z,42.33
2018-11-25T01:48:59.578Z,46.13
2018-11-25T01:51:35.243Z,43.57
2018-11-25T01:54:11.135Z,41.27
2018-11-25T01:56:48.364Z,45.73
2018-11-25T01:59:26.664Z,45.10
2018-11-25T02:02:07.344Z,43.77
2018-11-25T02:04:43.540Z,43.67
2018-11-25T02:07:26.569Z,42.13
2018-11-25T02:10:03.412Z,42.60
2018-11-25T02:12:39.195Z,45.83
2018-11-25T02:15:17.485Z,44.20
2018-11-25T02:17:54.725Z,44.07
2018-11-25T02:20:31.712Z,44.03
2018-11-25T02:23:08.301Z,45.83
2018-11-25T02:25:46.896Z,42.73
2018-11-25T02:28:23.119Z,44.10
2018-11-25T02:30:59.856Z,42.83
2018-11-25T02:33:37.974Z,45.23
2018-11-25T02:36:15.929Z,45.80
2018-11-25T02:38:53.375Z,46.93
2018-11-25T02:41:29.514Z,45.13
2018-11-25T02:44:05.456Z,46.60
2018-11-25T02:46:42.992Z,42.60
2018-11-25T02:49:19.043Z,43.30
2018-11-25T02:51:54.708Z,50.13
2018-11-25T02:54:30.602Z,45.73
2018-11-25T02:57:06.356Z,48.23
2018-11-25T02:59:42.276Z,51.00
2018-11-25T03:02:18.118Z,43.47
2018-11-25T03:04:53.845Z,44.83
2018-11-25T03:07:29.614Z,46.47
2018-11-25T03:10:06.112Z,45.77
2018-11-25T03:12:47.873Z,43.23
2018-11-25T03:15:25.003Z,50.30
2018-11-25T03:18:02.119Z,44.70
2018-11-25T03:20:37.871Z,43.00
2018-11-25T03:23:16.725Z,43.00
2018-11-25T03:25:52.762Z,43.47
2018-11-25T03:28:28.513Z,43.63
2018-11-25T03:31:04.297Z,41.73
2018-11-25T03:33:40.199Z,40.07
2018-11-25T03:36:16.396Z,43.83
2018-11-25T03:38:53.779Z,43.57
2018-11-25T03:41:29.621Z,43.33
2018-11-25T03:44:05.520Z,42.33
2018-11-25T03:46:41.600Z,40.57
2018-11-25T03:49:20.379Z,43.20
2018-11-25T03:51:57.690Z,41.57
2018-11-25T03:54:34.284Z,41.63
2018-11-25T03:57:10.813Z,41.90
2018-11-25T03:59:48.802Z,42.17
2018-11-25T04:02:27.257Z,41.40
2018-11-25T04:05:05.915Z,40.03
2018-11-25T04:07:42.354Z,56.37
2018-11-25T04:10:18.934Z,45.10
2018-11-25T04:12:55.326Z,46.50
2018-11-25T04:15:30.826Z,43.40
2018-11-25T04:18:06.812Z,58.30
2018-11-25T04:20:43.185Z,55.33
2018-11-25T04:23:19.648Z,43.17
2018-11-25T04:25:55.960Z,43.23
2018-11-25T04:28:31.627Z,41.43
2018-11-25T04:31:07.659Z,44.70
2018-11-25T04:33:43.315Z,39.60
2018-11-25T04:36:19.252Z,38.80
2018-11-25T04:38:55.271Z,43.53
2018-11-25T04:41:31.218Z,40.77
2018-11-25T04:44:07.890Z,40.80
2018-11-25T04:46:46.264Z,41.43
2018-11-25T04:49:22.714Z,42.23
2018-11-25T04:51:58.662Z,40.23
2018-11-25T04:54:34.582Z,40.90
2018-11-25T04:57:13.064Z,36.33
2018-11-25T04:59:49.382Z,38.67
2018-11-25T05:02:25.085Z,44.83
2018-11-25T05:05:00.686Z,41.80
2018-11-25T05:07:36.524Z,42.57
2018-11-25T05:10:17.034Z,41.70
2018-11-25T05:12:53.286Z,42.43
2018-11-25T05:15:29.882Z,40.90
2018-11-25T05:18:05.927Z,43.17
2018-11-25T05:20:41.613Z,39.53
2018-11-25T05:23:17.410Z,38.80
2018-11-25T05:25:53.587Z,39.90
2018-11-25T05:28:29.313Z,38.60
2018-11-25T05:31:06.248Z,40.87
2018-11-25T05:33:42.317Z,39.10
2018-11-25T05:36:18.241Z,38.90
2018-11-25T05:38:56.749Z,37.83
2018-11-25T05:41:33.955Z,36.50
2018-11-25T05:44:09.679Z,40.10
2018-11-25T05:46:45.450Z,35.70
2018-11-25T05:49:21.289Z,32.17
2018-11-25T05:51:57.243Z,40.70
2018-11-25T05:54:33.008Z,40.93
2018-11-25T05:57:09.089Z,42.53
2018-11-25T05:59:45.022Z,35.53
2018-11-25T06:02:20.904Z,39.20
2018-11-25T06:04:56.613Z,38.13
2018-11-25T06:07:32.491Z,40.27
2018-11-25T06:10:12.348Z,37.77
2018-11-25T06:12:48.573Z,42.73
2018-11-25T06:15:24.916Z,47.40
2018-11-25T06:18:01.728Z,44.43
2018-11-25T06:20:37.845Z,35.50
2018-11-25T06:23:14.102Z,34.13
2018-11-25T06:25:50.614Z,38.67
2018-11-25T06:28:26.466Z,39.17
2018-11-25T06:31:02.182Z,39.60
2018-11-25T06:33:37.962Z,37.37
2018-11-25T06:36:14.097Z,37.47
2018-11-25T06:38:50.460Z,37.53
2018-11-25T06:41:27.151Z,33.03
2018-11-25T06:44:02.545Z,33.37
2018-11-25T06:46:38.073Z,36.83
2018-11-25T06:49:14.791Z,33.43
2018-11-25T06:51:52.094Z,38.63
2018-11-25T06:54:27.966Z,43.30
2018-11-25T06:57:03.846Z,44.80
2018-11-25T06:59:39.375Z,46.10
2018-11-25T07:02:15.509Z,53.23
2018-11-25T07:04:51.197Z,37.37
2018-11-25T07:07:27.021Z,48.17
2018-11-25T07:10:02.885Z,33.87
2018-11-25T07:12:38.777Z,34.97
2018-11-25T07:15:19.025Z,39.67
2018-11-25T07:17:55.459Z,41.03
2018-11-25T07:20:32.211Z,39.57
2018-11-25T07:23:08.589Z,39.50
2018-11-25T07:25:45.040Z,41.63
2018-11-25T07:28:21.419Z,40.93
2018-11-25T07:30:57.163Z,43.40
2018-11-25T07:33:33.165Z,44.07
2018-11-25T07:36:10.279Z,40.07
2018-11-25T07:38:47.275Z,40.87
2018-11-25T07:41:23.522Z,41.47
2018-11-25T07:44:00.065Z,49.60
2018-11-25T07:46:35.769Z,47.67
2018-11-25T07:49:12.054Z,44.20
2018-11-25T07:51:48.081Z,47.57
2018-11-25T07:54:24.722Z,46.13
2018-11-25T07:57:00.542Z,47.20
2018-11-25T07:59:37.566Z,53.33
2018-11-25T08:02:14.952Z,53.40
2018-11-25T08:04:51.579Z,54.80
2018-11-25T08:07:28.234Z,70.23
2018-11-25T08:10:04.627Z,64.27
2018-11-25T08:12:41.751Z,74.57
2018-11-25T08:15:20.289Z,74.40
2018-11-25T08:17:56.562Z,76.03
2018-11-25T08:20:33.499Z,79.83
2018-11-25T08:23:10.247Z,72.93
2018-11-25T08:25:47.877Z,74.70
2018-11-25T08:28:24.344Z,73.20
2018-11-25T08:31:01.372Z,65.40
2018-11-25T08:33:37.993Z,61.00
2018-11-25T08:36:13.851Z,52.73
2018-11-25T08:38:49.662Z,54.67
2018-11-25T08:41:26.763Z,45.43
2018-11-25T08:44:02.470Z,43.10
2018-11-25T08:46:38.340Z,41.80
2018-11-25T08:49:13.984Z,42.10
2018-11-25T08:51:50.933Z,44.60
2018-11-25T08:54:26.688Z,41.93
2018-11-25T08:57:02.333Z,41.80
2018-11-25T08:59:38.384Z,40.17
2018-11-25T09:02:14.175Z,35.83
2018-11-25T09:04:50.179Z,29.90
2018-11-25T09:07:26.214Z,32.80
2018-11-25T09:10:02.770Z,33.40
2018-11-25T09:12:38.367Z,34.07
2018-11-25T09:15:16.918Z,35.53
2018-11-25T09:17:53.339Z,37.07
2018-11-25T09:20:29.253Z,40.00
2018-11-25T09:23:05.356Z,39.63
2018-11-25T09:25:42.991Z,38.80
2018-11-25T09:28:18.978Z,38.03
2018-11-25T09:30:55.692Z,39.47
2018-11-25T09:33:32.588Z,37.03
2018-11-25T09:36:09.140Z,39.00
2018-11-25T09:38:45.612Z,38.83
2018-11-25T09:41:21.954Z,39.17
2018-11-25T09:43:57.715Z,38.30
2018-11-25T09:46:34.744Z,31.83
2018-11-25T09:49:11.637Z,30.33
2018-11-25T09:51:48.038Z,29.50
2018-11-25T09:54:24.847Z,29.10
2018-11-25T09:57:01.600Z,27.73
2018-11-25T09:59:37.922Z,28.80
2018-11-25T10:02:14.581Z,28.67
2018-11-25T10:04:50.408Z,29.10
2018-11-25T10:07:26.508Z,29.00
2018-11-25T10:10:03.266Z,27.90
2018-11-25T10:12:39.823Z,28.40
2018-11-25T10:15:18.180Z,26.30
2018-11-25T10:17:59.871Z,25.37
2018-11-25T10:20:32.416Z,24.97
2018-11-25T10:23:08.571Z,23.47
2018-11-25T10:25:45.103Z,24.53
2018-11-25T10:28:21.179Z,22.73
2018-11-25T10:30:58.082Z,23.00
2018-11-25T10:33:34.831Z,22.20
2018-11-25T10:36:10.811Z,22.77
2018-11-25T10:38:46.583Z,19.60
2018-11-25T10:41:22.406Z,21.57
2018-11-25T10:43:58.331Z,20.97
2018-11-25T10:46:34.414Z,18.33
2018-11-25T10:49:10.803Z,18.87
2018-11-25T10:51:46.985Z,17.97
2018-11-25T10:54:23.581Z,17.10
2018-11-25T10:56:59.130Z,18.50
2018-11-25T10:59:35.029Z,15.10
2018-11-25T11:02:15.935Z,16.77
2018-11-25T11:04:57.724Z,18.97
2018-11-25T11:07:40.385Z,19.10
2018-11-25T11:10:17.108Z,19.07
2018-11-25T11:12:54.205Z,17.27
2018-11-25T11:15:30.407Z,18.10
2018-11-25T11:18:07.217Z,17.93
2018-11-25T11:20:44.401Z,20.13
2018-11-25T11:23:20.251Z,18.87
2018-11-25T11:25:56.076Z,18.00
2018-11-25T11:28:31.873Z,18.53
2018-11-25T11:31:13.281Z,19.17
2018-11-25T11:33:44.484Z,18.13
2018-11-25T11:36:20.364Z,16.37
2018-11-25T11:38:56.009Z,15.47
2018-11-25T11:41:31.803Z,18.53
2018-11-25T11:44:08.370Z,16.13
2018-11-25T11:46:44.746Z,13.13
2018-11-25T11:49:21.129Z,12.87
2018-11-25T11:51:57.759Z,11.93
2018-11-25T11:54:34.417Z,18.93
2018-11-25T11:57:10.247Z,14.67
2018-11-25T11:59:46.265Z,10.53
2018-11-25T12:02:22.061Z,8.30
2018-11-25T12:05:00.840Z,9.77
2018-11-25T12:07:38.200Z,8.27
2018-11-25T12:10:15.634Z,8.90
2018-11-25T12:12:52.735Z,8.10
2018-11-25T12:15:31.332Z,9.00
2018-11-25T12:18:08.883Z,8.67
2018-11-25T12:20:44.949Z,7.80
2018-11-25T12:23:21.715Z,8.10
2018-11-25T12:25:57.694Z,8.63
2018-11-25T12:28:34.203Z,10.23
2018-11-25T12:31:10.491Z,9.87
2018-11-25T12:33:46.927Z,11.97
2018-11-25T12:36:22.837Z,10.93
2018-11-25T12:38:58.616Z,9.60
2018-11-25T12:41:34.417Z,9.80
2018-11-25T12:44:10.408Z,11.27
2018-11-25T12:46:48.241Z,10.67
2018-11-25T12:49:24.860Z,11.47
2018-11-25T12:52:01.952Z,11.20
2018-11-25T12:54:39.422Z,12.37
2018-11-25T12:57:17.345Z,13.53
2018-11-25T12:59:54.100Z,12.57
2018-11-25T13:02:30.896Z,12.80
2018-11-25T13:05:07.777Z,13.30
2018-11-25T13:07:46.084Z,13.33
2018-11-25T13:10:22.925Z,13.53
2018-11-25T13:12:59.743Z,12.27
2018-11-25T13:15:36.675Z,11.63
2018-11-25T13:18:13.689Z,12.13
2018-11-25T13:20:50.396Z,11.83
2018-11-25T13:23:28.397Z,11.87
2018-11-25T13:26:05.475Z,10.47
2018-11-25T13:28:43.499Z,12.07
2018-11-25T13:31:20.173Z,11.87
2018-11-25T13:33:57.359Z,10.97
2018-11-25T13:36:35.046Z,12.53
2018-11-25T13:39:13.200Z,11.53
2018-11-25T13:41:49.884Z,10.67
2018-11-25T13:44:26.688Z,11.10
2018-11-25T13:47:03.970Z,11.53
2018-11-25T13:49:41.533Z,10.53
2018-11-25T13:52:18.854Z,11.20
2018-11-25T13:54:56.106Z,10.67
2018-11-25T13:57:33.181Z,9.30
2018-11-25T14:00:25.473Z,9.83
2018-11-25T14:03:03.141Z,10.07
2018-11-25T14:05:42.209Z,10.57
2018-11-25T14:08:19.300Z,9.27
2018-11-25T14:11:01.778Z,10.13
2018-11-25T14:13:38.813Z,9.87
2018-11-25T14:16:23.521Z,8.30
2018-11-25T14:19:00.728Z,10.87
2018-11-25T14:21:38.171Z,9.97
2018-11-25T14:24:17.091Z,11.10
2018-11-25T14:27:00.684Z,11.53
2018-11-25T14:29:37.641Z,26.83
2018-11-25T14:32:16.270Z,33.80
2018-11-25T14:34:53.144Z,26.83
2018-11-25T14:37:31.857Z,25.73
2018-11-25T14:40:11.122Z,21.47
2018-11-25T14:42:48.235Z,19.43
2018-11-25T14:45:25.740Z,16.93
2018-11-25T14:48:03.611Z,16.93
2018-11-25T14:50:40.754Z,15.47
2018-11-25T14:53:17.751Z,14.57
2018-11-25T14:55:54.633Z,14.23
2018-11-25T14:58:30.713Z,13.37
2018-11-25T15:01:07.009Z,14.27
2018-11-25T15:03:44.846Z,13.43
2018-11-25T15:06:21.289Z,14.97
2018-11-25T15:08:57.341Z,13.57
2018-11-25T15:11:33.492Z,15.10
2018-11-25T15:14:10.477Z,15.70
2018-11-25T15:16:47.051Z,16.30
2018-11-25T15:19:23.792Z,16.77
2018-11-25T15:22:00.432Z,17.87
2018-11-25T15:24:37.863Z,17.13
2018-11-25T15:27:14.611Z,19.93
2018-11-25T15:29:52.540Z,17.20
2018-11-25T15:32:29.012Z,18.90
2018-11-25T15:35:07.330Z,19.93
2018-11-25T15:37:45.123Z,19.83
2018-11-25T15:40:26.014Z,17.57
2018-11-25T15:43:02.675Z,19.00
2018-11-25T15:45:38.537Z,18.17
2018-11-25T15:48:31.265Z,16.07
2018-11-25T15:51:07.641Z,16.10
2018-11-25T15:53:43.403Z,17.43
2018-11-25T15:56:19.977Z,15.30
2018-11-25T15:58:55.802Z,16.60
2018-11-25T16:01:31.518Z,17.53
2018-11-25T16:04:07.195Z,15.30
2018-11-25T16:06:43.571Z,14.53
2018-11-25T16:09:20.137Z,14.83
2018-11-25T16:11:55.977Z,14.17
2018-11-25T16:14:31.850Z,13.67
2018-11-25T16:17:07.591Z,14.50
2018-11-25T16:19:43.853Z,13.00
2018-11-25T16:22:19.565Z,13.80
2018-11-25T16:24:57.049Z,12.57
2018-11-25T16:27:34.514Z,12.93
2018-11-25T16:30:12.824Z,11.33
2018-11-25T16:32:48.900Z,13.33
2018-11-25T16:35:25.323Z,14.03
2018-11-25T16:38:01.770Z,14.70
2018-11-25T16:40:38.749Z,14.97
2018-11-25T16:43:15.247Z,16.13
2018-11-25T16:45:51.816Z,16.77
2018-11-25T16:48:28.757Z,15.77
2018-11-25T16:51:05.414Z,13.00
2018-11-25T16:53:41.787Z,14.10
2018-11-25T16:56:18.794Z,14.13
2018-11-25T16:58:55.074Z,12.47
2018-11-25T17:01:31.613Z,11.47
2018-11-25T17:04:07.340Z,11.90
2018-11-25T17:06:44.576Z,10.47
2018-11-25T17:09:21.030Z,11.40
2018-11-25T17:11:57.572Z,12.20
2018-11-25T17:14:34.112Z,10.17
2018-11-25T17:17:09.584Z,10.43
2018-11-25T17:19:46.814Z,11.33
2018-11-25T17:22:24.795Z,11.87
2018-11-25T17:25:01.548Z,9.93
2018-11-25T17:27:38.142Z,11.40
2018-11-25T17:30:16.362Z,11.33
2018-11-25T17:32:52.948Z,12.70
2018-11-25T17:35:29.903Z,14.57
2018-11-25T17:38:06.832Z,11.60
2018-11-25T17:40:43.316Z,11.70
2018-11-25T17:43:23.442Z,11.47
2018-11-25T17:46:00.108Z,12.23
2018-11-25T17:48:37.041Z,13.53
2018-11-25T17:51:15.006Z,12.73
2018-11-25T17:53:52.228Z,13.80
2018-11-25T17:56:27.776Z,15.77
2018-11-25T17:59:03.813Z,16.67
2018-11-25T18:01:40.235Z,14.37
2018-11-25T18:04:16.887Z,15.03
2018-11-25T18:06:52.839Z,14.73
2018-11-25T18:09:28.553Z,15.30
2018-11-25T18:12:04.925Z,14.83
2018-11-25T18:14:41.843Z,14.87
2018-11-25T18:17:18.274Z,19.17
2018-11-25T18:19:56.658Z,20.30
2018-11-25T18:22:33.392Z,23.00
2018-11-25T18:25:09.944Z,22.47
2018-11-25T18:28:00.034Z,23.10
2018-11-25T18:30:30.726Z,24.00
2018-11-25T18:33:10.771Z,29.83
2018-11-25T18:35:47.000Z,28.07
2018-11-25T18:38:25.793Z,27.30
2018-11-25T18:41:05.892Z,40.53
2018-11-25T18:43:44.966Z,42.37
2018-11-25T18:46:23.703Z,42.10
2018-11-25T18:49:04.742Z,38.33
2018-11-25T18:51:44.450Z,38.63
2018-11-25T18:54:21.463Z,40.63
2018-11-25T18:56:58.715Z,36.17
2018-11-25T18:59:35.321Z,39.43
2018-11-25T19:02:33.500Z,37.67
2018-11-25T19:05:09.796Z,35.90
2018-11-25T19:07:46.410Z,37.77
2018-11-25T19:10:23.756Z,39.80
2018-11-25T19:12:59.835Z,40.57
2018-11-25T19:15:37.941Z,38.37
2018-11-25T19:18:14.813Z,40.97
2018-11-25T19:20:51.910Z,40.47
2018-11-25T19:23:29.972Z,43.07
2018-11-25T19:26:06.572Z,40.97
2018-11-25T19:28:43.216Z,39.97
2018-11-25T19:31:20.395Z,42.70
2018-11-25T19:33:56.398Z,39.00
2018-11-25T19:36:32.179Z,40.63
2018-11-25T19:39:10.405Z,37.10
2018-11-25T19:41:47.376Z,37.83
2018-11-25T19:44:24.456Z,38.40
2018-11-25T19:47:01.186Z,35.43
2018-11-25T19:49:37.735Z,34.10
2018-11-25T19:52:14.607Z,32.23
2018-11-25T19:54:51.598Z,32.70
2018-11-25T19:57:27.736Z,31.77
2018-11-25T20:00:05.359Z,32.20
2018-11-25T20:02:41.837Z,34.27
2018-11-25T20:05:19.584Z,30.47
2018-11-25T20:07:55.563Z,32.23
2018-11-25T20:10:32.080Z,35.67
2018-11-25T20:13:09.556Z,36.43
2018-11-25T20:15:46.099Z,35.00
2018-11-25T20:18:22.713Z,37.23
2018-11-25T20:21:04.634Z,34.63
2018-11-25T20:23:41.134Z,37.03
2018-11-25T20:26:17.172Z,34.40
2018-11-25T20:28:52.988Z,33.30
2018-11-25T20:31:29.270Z,36.53
2018-11-25T20:34:06.372Z,35.97
2018-11-25T20:36:43.372Z,43.00
2018-11-25T20:39:25.631Z,47.03
2018-11-25T20:42:01.713Z,46.90
2018-11-25T20:44:38.927Z,49.30
2018-11-25T20:47:16.762Z,60.03
2018-11-25T20:49:53.190Z,55.03
2018-11-25T20:52:35.290Z,51.40
2018-11-25T20:55:11.635Z,53.37
2018-11-25T20:57:49.444Z,55.63
2018-11-25T21:00:27.831Z,56.17
2018-11-25T21:03:04.395Z,47.80
2018-11-25T21:05:41.101Z,47.93
2018-11-25T21:08:17.763Z,42.57
2018-11-25T21:10:53.447Z,43.20
2018-11-25T21:13:29.411Z,44.13
2018-11-25T21:16:05.583Z,44.77
2018-11-25T21:18:43.136Z,38.43
2018-11-25T21:21:18.966Z,36.83
2018-11-25T21:23:54.988Z,37.47
2018-11-25T21:26:30.698Z,34.80
2018-11-25T21:29:07.761Z,37.03
2018-11-25T21:31:44.730Z,34.87
2018-11-25T21:34:21.642Z,40.83
2018-11-25T21:36:58.249Z,49.67
2018-11-25T21:39:34.275Z,40.67
2018-11-25T21:42:10.104Z,39.67
2018-11-25T21:44:46.035Z,35.63
2018-11-25T21:47:22.590Z,32.97
2018-11-25T21:49:58.601Z,32.83
2018-11-25T21:52:35.484Z,34.90
2018-11-25T21:55:14.033Z,34.57
2018-11-25T21:57:49.896Z,37.13
2018-11-25T22:00:27.655Z,36.50
2018-11-25T22:03:04.907Z,35.13
2018-11-25T22:05:41.318Z,37.70
2018-11-25T22:08:17.941Z,39.13
2018-11-25T22:10:54.196Z,41.03
2018-11-25T22:13:30.564Z,40.70
2018-11-25T22:16:07.062Z,38.70
2018-11-25T22:18:44.178Z,38.67
2018-11-25T22:21:21.397Z,37.53
2018-11-25T22:23:58.522Z,36.50
2018-11-25T22:26:34.972Z,39.17
2018-11-25T22:29:10.810Z,35.70
2018-11-25T22:31:46.572Z,36.77
2018-11-25T22:34:22.457Z,35.73
2018-11-25T22:36:59.524Z,38.37
2018-11-25T22:39:37.632Z,40.10
2018-11-25T22:42:16.700Z,39.20
2018-11-25T22:44:52.984Z,40.57
2018-11-25T22:47:28.794Z,41.67
2018-11-25T22:50:06.807Z,47.30
2018-11-25T22:52:42.814Z,47.13
2018-11-25T22:55:22.940Z,47.27
2018-11-25T22:57:58.491Z,50.03
2018-11-25T23:00:36.920Z,53.93
2018-11-25T23:03:13.190Z,57.30
2018-11-25T23:06:00.174Z,54.90
2018-11-25T23:08:35.831Z,58.17
2018-11-25T23:11:12.367Z,61.83
2018-11-25T23:13:48.650Z,60.30
2018-11-25T23:16:24.611Z,65.10
2018-11-25T23:19:00.463Z,66.40
2018-11-25T23:21:36.466Z,67.70
2018-11-25T23:24:12.154Z,73.97
2018-11-25T23:26:47.912Z,75.40
2018-11-25T23:29:23.567Z,74.33
2018-11-25T23:31:59.617Z,76.47
2018-11-25T23:34:35.568Z,74.90
2018-11-25T23:37:12.287Z,77.77
2018-11-25T23:39:48.311Z,75.57
2018-11-25T23:42:24.116Z,76.63
2018-11-25T23:45:00.056Z,77.27
2018-11-25T23:47:35.957Z,75.77
2018-11-25T23:50:13.267Z,77.90
2018-11-25T23:52:49.407Z,80.00
2018-11-25T23:55:25.534Z,76.07
2018-11-25T23:58:01.516Z,75.50
